Marina Lobra — IXVN — position and weather

sailwx.info

Track history (hours):
 
Tides and Currents Weather Stations Pressure Air Temp Water Temp Dewpoint Dewpoint Depression Visibility Wind Speed Wind Dir Waves Ship Positions

Marina Lobra

Last reported at 2016-Dec-02 23:33 UTC. Time now 2016-Dec-07 22:22 UTC.
Position N 40°51' E 014°16'.

Length 56 m; draft 2.6 m.

Type: Ship (hazmat cat C). MMSI: 247188300.

Date/timePositionNaut miles runAvg speedWind from/ knotsBaromVisibWave heightAir tempDewpointWater temp
2016-Dec-02 23:33N 40°51' E 014°16'0 0.0
2016-Dec-01 12:30N 40°51' E 014°16'1 1.1
2016-Dec-01 11:23N 40°50' E 014°17'0 0.0
2016-Dec-01 10:27N 40°50' E 014°17'0 0.0
2016-Dec-01 09:17N 40°50' E 014°17'0 0.0
2016-Dec-01 08:33N 40°50' E 014°17'1 0.1
2016-Nov-30 08:32N 40°51' E 014°16'0 0.0
2016-Nov-30 07:31N 40°51' E 014°16'0 0.0
2016-Nov-30 01:23N 40°51' E 014°16'0 0.0
2016-Nov-30 00:05N 40°51' E 014°16'0 0.0
2016-Nov-29 18:29N 40°51' E 014°16'0 0.0
2016-Nov-29 17:24N 40°51' E 014°16'0 0.0
2016-Nov-29 16:32N 40°51' E 014°16'0 0.0
2016-Nov-29 15:33N 40°51' E 014°16'0 0.0
2016-Nov-29 13:18N 40°51' E 014°16'0 0.0
2016-Nov-29 12:24N 40°51' E 014°16'0 0.0
2016-Nov-29 11:30N 40°51' E 014°16'0 0.0
2016-Nov-29 10:20N 40°51' E 014°16'0 0.0
2016-Nov-29 09:29N 40°51' E 014°16'0 0.0
2016-Nov-29 08:33N 40°51' E 014°16'0 0.0
2016-Nov-29 07:25N 40°51' E 014°16'0 0.0
2016-Nov-29 04:22N 40°51' E 014°16'0 0.0
2016-Nov-29 03:19N 40°51' E 014°16'0 0.0
2016-Nov-28 13:30N 40°51' E 014°16'0 0.2
2016-Nov-28 11:09N 40°50' E 014°15'1 2.3
2016-Nov-28 10:32N 40°50' E 014°17'0 0.0
2016-Nov-28 08:13N 40°50' E 014°17'1 0.3
2016-Nov-28 03:33N 40°51' E 014°16'0 0.0
2016-Nov-27 23:33N 40°51' E 014°16'0 0.0
2016-Nov-27 21:33N 40°51' E 014°16'  
2016-Nov-25 11:33N 40°50' E 014°17'0 0.3
2016-Nov-25 10:33N 40°50' E 014°17'0 0.0
2016-Nov-25 09:33N 40°50' E 014°17'0 0.0
2016-Nov-25 08:33N 40°50' E 014°17'3 2.5
2016-Nov-25 07:33N 40°48' E 014°18'6 6.2
2016-Nov-25 06:33N 40°42' E 014°16'6 5.9
2016-Nov-25 05:33N 40°36' E 014°15'2 2.4
2016-Nov-25 04:33N 40°33' E 014°14'0 0.0
2016-Nov-25 03:33N 40°33' E 014°14'0 0.0
2016-Nov-25 02:33N 40°33' E 014°14'0 0.0
2016-Nov-25 01:33N 40°33' E 014°14'0 0.0
2016-Nov-25 00:33N 40°33' E 014°14'0 0.0
2016-Nov-24 23:33N 40°33' E 014°14'0 0.0
2016-Nov-24 22:33N 40°33' E 014°14'0 0.0
2016-Nov-24 21:33N 40°33' E 014°14'0 0.0
2016-Nov-24 20:33N 40°33' E 014°14'1 0.7
2016-Nov-24 19:33N 40°34' E 014°14'4 3.6
2016-Nov-24 18:33N 40°37' E 014°16'6 5.6
2016-Nov-24 17:33N 40°43' E 014°17'6 5.7
2016-Nov-24 16:33N 40°49' E 014°18'2 1.8
2016-Nov-24 15:33N 40°50' E 014°17'0 0.0
2016-Nov-24 14:33N 40°50' E 014°17'0 0.0
2016-Nov-24 13:33N 40°50' E 014°17'0 0.0
2016-Nov-24 12:33N 40°50' E 014°17'0 0.0
2016-Nov-24 11:33N 40°50' E 014°17'0 0.0
2016-Nov-24 10:33N 40°50' E 014°17'0 0.0
2016-Nov-24 09:33N 40°50' E 014°17'1 0.0
2016-Nov-23 14:33N 40°50' E 014°17'6 5.7
2016-Nov-23 13:33N 40°47' E 014°10'3 3.2
2016-Nov-23 12:33N 40°49' E 014°07'0 0.0
2016-Nov-23 11:33N 40°49' E 014°07'0 0.0
2016-Nov-23 10:33N 40°49' E 014°07'1 0.5
2016-Nov-23 09:33N 40°49' E 014°07'6 5.6
2016-Nov-23 08:33N 40°47' E 014°14'4 3.4
2016-Nov-23 07:30N 40°51' E 014°16'  
Track history (hours):
 
Tides and Currents Weather Stations Pressure Air Temp Water Temp Dewpoint Dewpoint Depression Visibility Wind Speed Wind Dir Waves Ship Positions

Marina Lobra

Last reported at 2016-Dec-02 23:33 UTC. Time now 2016-Dec-07 22:22 UTC.
Position N 40°51' E 014°16'.

Length 56 m; draft 2.6 m.

Type: Ship (hazmat cat C). MMSI: 247188300.

Date/timePositionNaut miles runAvg speedWind from/ knotsBaromVisibWave heightAir tempDewpointWater temp
2016-Dec-02 23:33N 40°51' E 014°16'0 0.0
2016-Dec-01 12:30N 40°51' E 014°16'1 1.1
2016-Dec-01 11:23N 40°50' E 014°17'0 0.0
2016-Dec-01 10:27N 40°50' E 014°17'0 0.0
2016-Dec-01 09:17N 40°50' E 014°17'0 0.0
2016-Dec-01 08:33N 40°50' E 014°17'1 0.1
2016-Nov-30 08:32N 40°51' E 014°16'0 0.0
2016-Nov-30 07:31N 40°51' E 014°16'0 0.0
2016-Nov-30 01:23N 40°51' E 014°16'0 0.0
2016-Nov-30 00:05N 40°51' E 014°16'0 0.0
2016-Nov-29 18:29N 40°51' E 014°16'0 0.0
2016-Nov-29 17:24N 40°51' E 014°16'0 0.0
2016-Nov-29 16:32N 40°51' E 014°16'0 0.0
2016-Nov-29 15:33N 40°51' E 014°16'0 0.0
2016-Nov-29 13:18N 40°51' E 014°16'0 0.0
2016-Nov-29 12:24N 40°51' E 014°16'0 0.0
2016-Nov-29 11:30N 40°51' E 014°16'0 0.0
2016-Nov-29 10:20N 40°51' E 014°16'0 0.0
2016-Nov-29 09:29N 40°51' E 014°16'0 0.0
2016-Nov-29 08:33N 40°51' E 014°16'0 0.0
2016-Nov-29 07:25N 40°51' E 014°16'0 0.0
2016-Nov-29 04:22N 40°51' E 014°16'0 0.0
2016-Nov-29 03:19N 40°51' E 014°16'0 0.0
2016-Nov-28 13:30N 40°51' E 014°16'0 0.2
2016-Nov-28 11:09N 40°50' E 014°15'1 2.3
2016-Nov-28 10:32N 40°50' E 014°17'0 0.0
2016-Nov-28 08:13N 40°50' E 014°17'1 0.3
2016-Nov-28 03:33N 40°51' E 014°16'0 0.0
2016-Nov-27 23:33N 40°51' E 014°16'0 0.0
2016-Nov-27 21:33N 40°51' E 014°16'  
2016-Nov-25 11:33N 40°50' E 014°17'0 0.3
2016-Nov-25 10:33N 40°50' E 014°17'0 0.0
2016-Nov-25 09:33N 40°50' E 014°17'0 0.0
2016-Nov-25 08:33N 40°50' E 014°17'3 2.5
2016-Nov-25 07:33N 40°48' E 014°18'6 6.2
2016-Nov-25 06:33N 40°42' E 014°16'6 5.9
2016-Nov-25 05:33N 40°36' E 014°15'2 2.4
2016-Nov-25 04:33N 40°33' E 014°14'0 0.0
2016-Nov-25 03:33N 40°33' E 014°14'0 0.0
2016-Nov-25 02:33N 40°33' E 014°14'0 0.0
2016-Nov-25 01:33N 40°33' E 014°14'0 0.0
2016-Nov-25 00:33N 40°33' E 014°14'0 0.0
2016-Nov-24 23:33N 40°33' E 014°14'0 0.0
2016-Nov-24 22:33N 40°33' E 014°14'0 0.0
2016-Nov-24 21:33N 40°33' E 014°14'0 0.0
2016-Nov-24 20:33N 40°33' E 014°14'1 0.7
2016-Nov-24 19:33N 40°34' E 014°14'4 3.6
2016-Nov-24 18:33N 40°37' E 014°16'6 5.6
2016-Nov-24 17:33N 40°43' E 014°17'6 5.7
2016-Nov-24 16:33N 40°49' E 014°18'2 1.8
2016-Nov-24 15:33N 40°50' E 014°17'0 0.0
2016-Nov-24 14:33N 40°50' E 014°17'0 0.0
2016-Nov-24 13:33N 40°50' E 014°17'0 0.0
2016-Nov-24 12:33N 40°50' E 014°17'0 0.0
2016-Nov-24 11:33N 40°50' E 014°17'0 0.0
2016-Nov-24 10:33N 40°50' E 014°17'0 0.0
2016-Nov-24 09:33N 40°50' E 014°17'1 0.0
2016-Nov-23 14:33N 40°50' E 014°17'6 5.7
2016-Nov-23 13:33N 40°47' E 014°10'3 3.2
2016-Nov-23 12:33N 40°49' E 014°07'0 0.0
2016-Nov-23 11:33N 40°49' E 014°07'0 0.0
2016-Nov-23 10:33N 40°49' E 014°07'1 0.5
2016-Nov-23 09:33N 40°49' E 014°07'6 5.6
2016-Nov-23 08:33N 40°47' E 014°14'4 3.4
2016-Nov-23 07:30N 40°51' E 014°16'  

Dump ship's entire track history